| time (UTC) | temp C | wind direction | speed KPH | gust KPH | rain 1hr cm | rain 24hr cm | rain mn cm | humidity % | barometer mb |
| 20260507101528 | 8 | 0.0 | 0.0 | 0.10 | 0.48 | 0.25 | 96 | 1007.2 | |
| 20260507101048 | 8 | 0.0 | 0.0 | 0.13 | 0.48 | 0.25 | 96 | 1007.3 | |
| 20260507100528 | 8 | 37 | 0.0 | 1.6 | 0.13 | 0.46 | 0.23 | 96 | 1007.4 |
| 20260507100028 | 8 | 0.0 | 0.0 | 0.13 | 0.46 | 0.23 | 96 | 1007.3 | |
| 20260507095528 | 8 | 0.0 | 0.0 | 0.13 | 0.46 | 0.23 | 95 | 1007.3 | |
| 20260507095027 | 8 | 0.0 | 0.0 | 0.15 | 0.46 | 0.23 | 95 | 1007.2 | |
| 20260507094527 | 8 | 37 | 0.0 | 1.6 | 0.13 | 0.43 | 0.20 | 96 | 1007.2 |
| 20260507094027 | 9 | 52 | 0.0 | 3.2 | 0.13 | 0.43 | 0.20 | 95 | 1007.1 |
| 20260507093527 | 9 | 94 | 0.0 | 3.2 | 0.13 | 0.43 | 0.20 | 95 | 1007.3 |
| 20260507093029 | 9 | 136 | 0.0 | 1.6 | 0.13 | 0.43 | 0.20 | 95 | 1007.5 |
| 20260507092527 | 9 | 137 | 0.0 | 1.6 | 0.13 | 0.43 | 0.20 | 96 | 1007.4 |
| 20260507092029 | 9 | 0.0 | 1.6 | 0.13 | 0.43 | 0.20 | 95 | 1007.2 | |
| 20260507091528 | 9 | 136 | 0.0 | 1.6 | 0.10 | 0.38 | 0.15 | 95 | 1007.3 |
| 20260507091028 | 10 | 136 | 0.0 | 1.6 | 0.05 | 0.36 | 0.13 | 95 | 1007.4 |
| 20260507090528 | 10 | 171 | 0.0 | 3.2 | 0.05 | 0.33 | 0.10 | 95 | 1007.6 |
| 20260507090028 | 10 | 230 | 0.0 | 1.6 | 0.05 | 0.33 | 0.10 | 95 | 1007.6 |
| 20260507085528 | 10 | 0.0 | 1.6 | 0.05 | 0.33 | 0.10 | 95 | 1007.5 | |
| 20260507085048 | 10 | 230 | 0.0 | 1.6 | 0.03 | 0.30 | 0.08 | 94 | 1007.4 |
| 20260507084528 | 10 | 229 | 0.0 | 1.6 | 0.03 | 0.30 | 0.08 | 95 | 1007.5 |
| 20260507084048 | 10 | 0.0 | 1.6 | 0.05 | 0.30 | 0.08 | 95 | 1007.4 | |
| 20260507083527 | 10 | 229 | 0.0 | 1.6 | 0.05 | 0.30 | 0.08 | 95 | 1007.3 |
| 20260507083027 | 10 | 0.0 | 0.0 | 0.05 | 0.30 | 0.08 | 95 | 1007.2 | |
| 20260507082527 | 10 | 0.0 | 0.0 | 0.05 | 0.30 | 0.08 | 94 | 1007.1 | |
| 20260507082047 | 10 | 230 | 0.0 | 1.6 | 0.05 | 0.30 | 0.08 | 94 | 1007.0 |
| 20260507081527 | 10 | 223 | 0.0 | 3.2 | 0.05 | 0.28 | 0.05 | 94 | 1006.8 |
| 20260507081027 | 10 | 0.0 | 0.0 | 0.05 | 0.28 | 0.05 | 92 | 1006.9 | |
| 20260507080526 | 10 | 326 | 0.0 | 1.6 | 0.05 | 0.28 | 0.05 | 92 | 1007.3 |
| 20260507080029 | 11 | 326 | 0.0 | 4.8 | 0.05 | 0.28 | 0.05 | 91 | 1007.1 |
| 20260507075528 | 11 | 335 | 1.6 | 4.8 | 0.05 | 0.28 | 0.05 | 91 | 1007.3 |
| 20260507075028 | 11 | 90 | 1.6 | 4.8 | 0.05 | 0.28 | 0.05 | 91 | 1007.1 |
| 20260507074528 | 11 | 13 | 1.6 | 3.2 | 0.05 | 0.28 | 0.05 | 90 | 1006.9 |
| 20260507074028 | 12 | 18 | 0.0 | 3.2 | 0.03 | 0.25 | 0.03 | 90 | 1007.0 |
| 20260507073528 | 12 | 18 | 0.0 | 1.6 | 0.00 | 0.23 | 0.00 | 90 | 1007.2 |
| 20260507073028 | 12 | 18 | 0.0 | 1.6 | 0.00 | 0.23 | 0.00 | 90 | 1006.8 |
| 20260507072527 | 12 | 20 | 0.0 | 3.2 | 0.00 | 0.23 | 0.00 | 90 | 1006.4 |
| 20260507072027 | 12 | 26 | 1.6 | 3.2 | 0.00 | 0.23 | 0.00 | 90 | 1006.3 |
| 20260507071527 | 12 | 30 | 1.6 | 1.6 | 0.00 | 0.23 | 0.00 | 90 | 1006.3 |
| 20260507071047 | 12 | 30 | 0.0 | 1.6 | 0.00 | 0.23 | 0.00 | 90 | 1006.3 |
| 20260507070527 | 12 | 30 | 0.0 | 1.6 | 0.00 | 0.23 | 0.00 | 90 | 1006.5 |
| 20260507070027 | 12 | 30 | 0.0 | 1.6 | 0.00 | 0.23 | 0.00 | 90 | 1006.4 |
| 20260507065527 | 12 | 30 | 0.0 | 1.6 | 0.00 | 0.23 | 0.00 | 90 | 1006.2 |
| 20260507065027 | 12 | 30 | 0.0 | 1.6 | 0.00 | 0.23 | 0.00 | 90 | 1006.5 |
| 20260507064529 | 12 | 30 | 0.0 | 3.2 | 0.00 | 0.23 | 0.00 | 90 | 1006.2 |
| 20260507064028 | 12 | 30 | 0.0 | 3.2 | 0.00 | 0.23 | 0.00 | 90 | 1006.3 |
| 20260507063528 | 12 | 31 | 1.6 | 4.8 | 0.00 | 0.23 | 0.00 | 90 | 1006.3 |
| 20260507063028 | 12 | 181 | 0.0 | 3.2 | 0.00 | 0.23 | 0.00 | 91 | 1006.4 |
| 20260507062528 | 12 | 20 | 0.0 | 4.8 | 0.00 | 0.23 | 0.00 | 90 | 1006.5 |
| 20260507062048 | 12 | 10 | 1.6 | 4.8 | 0.00 | 0.23 | 0.00 | 90 | 1006.4 |
| 20260507061528 | 12 | 43 | 1.6 | 1.6 | 0.00 | 0.23 | 0.00 | 90 | 1006.2 |
| 20260507061027 | 12 | 44 | 0.0 | 1.6 | 0.00 | 0.23 | 0.00 | 90 | 1006.3 |
| 20260507060527 | 12 | 44 | 0.0 | 3.2 | 0.00 | 0.23 | 0.00 | 89 | 1006.4 |
| 20260507060027 | 12 | 48 | 0.0 | 3.2 | 0.00 | 0.23 | 0.00 | 90 | 1006.4 |
| 20260507055527 | 12 | 71 | 0.0 | 1.6 | 0.00 | 0.23 | 0.00 | 89 | 1006.6 |
| 20260507055027 | 13 | 72 | 0.0 | 3.2 | 0.00 | 0.23 | 0.00 | 90 | 1006.6 |
| 20260507054527 | 13 | 72 | 0.0 | 1.6 | 0.00 | 0.23 | 0.00 | 90 | 1006.5 |
| 20260507054027 | 13 | 52 | 1.6 | 4.8 | 0.00 | 0.23 | 0.00 | 90 | 1006.7 |
| 20260507053547 | 13 | 27 | 1.6 | 3.2 | 0.00 | 0.23 | 0.00 | 90 | 1006.8 |
| 20260507053029 | 13 | 28 | 0.0 | 1.6 | 0.00 | 0.23 | 0.00 | 91 | 1006.7 |
| 20260507052528 | 13 | 28 | 0.0 | 3.2 | 0.00 | 0.23 | 0.00 | 91 | 1006.5 |
| 20260507052028 | 13 | 26 | 0.0 | 3.2 | 0.00 | 0.23 | 0.00 | 91 | 1006.4 |
| 20260507051528 | 13 | 32 | 0.0 | 3.2 | 0.00 | 0.23 | 0.00 | 90 | 1006.2 |
| 20260507051028 | 13 | 352 | 1.6 | 3.2 | 0.00 | 0.23 | 0.00 | 90 | 1006.4 |
| 20260507050527 | 13 | 336 | 1.6 | 3.2 | 0.00 | 0.23 | 0.00 | 90 | 1006.3 |
| 20260507050048 | 13 | 344 | 1.6 | 4.8 | 0.00 | 0.23 | 0.00 | 90 | 1006.4 |
| 20260507045528 | 14 | 3 | 1.6 | 3.2 | 0.00 | 0.23 | 0.00 | 91 | 1006.6 |
| 20260507045108 | 14 | 19 | 1.6 | 4.8 | 0.00 | 0.23 | 0.00 | 92 | 1006.5 |
| 20260507044527 | 14 | 352 | 1.6 | 4.8 | 0.00 | 0.23 | 0.00 | 94 | 1006.6 |
| 20260507044027 | 14 | 71 | 0.0 | 1.6 | 0.00 | 0.23 | 0.00 | 94 | 1006.4 |
| 20260507043547 | 14 | 0 | 0.0 | 3.2 | 0.00 | 0.23 | 0.00 | 95 | 1006.3 |
| 20260507043027 | 14 | 218 | 1.6 | 1.6 | 0.00 | 0.23 | 0.00 | 95 | 1006.3 |
| 20260507042527 | 14 | 190 | 0.0 | 3.2 | 0.00 | 0.23 | 0.00 | 95 | 1006.3 |
| 20260507042027 | 15 | 185 | 1.6 | 4.8 | 0.03 | 0.23 | 0.00 | 96 | 1006.4 |
| 20260507041549 | 15 | 353 | 1.6 | 3.2 | 0.03 | 0.23 | 0.00 | 96 | 1006.4 |
| 20260507041028 | 15 | 63 | 0.0 | 3.2 | 0.03 | 0.23 | 0.00 | 97 | 1006.5 |
| 20260507040528 | 15 | 76 | 0.0 | 3.2 | 0.00 | 0.23 | 0.00 | 97 | 1006.7 |
| 20260507040108 | 15 | 124 | 0.0 | 1.6 | 0.00 | 0.23 | 0.00 | 97 | 1006.8 |
| 20260507035549 | 15 | 119 | 0.0 | 1.6 | 0.00 | 0.23 | 0.23 | 97 | 1006.6 |
| 20260507035028 | 15 | 119 | 0.0 | 1.6 | 0.00 | 0.23 | 0.23 | 97 | 1006.5 |
| 20260507034548 | 15 | 131 | 0.0 | 3.2 | 0.00 | 0.23 | 0.23 | 97 | 1006.3 |
| 20260507034027 | 15 | 126 | 0.0 | 3.2 | 0.00 | 0.23 | 0.23 | 97 | 1006.3 |
| 20260507033527 | 15 | 271 | 0.0 | 3.2 | 0.00 | 0.23 | 0.23 | 96 | 1006.1 |
| 20260507033047 | 15 | 313 | 0.0 | 4.8 | 0.00 | 0.23 | 0.23 | 96 | 1006.1 |
| 20260507032527 | 15 | 56 | 1.6 | 4.8 | 0.00 | 0.23 | 0.23 | 96 | 1006.2 |
| 20260507032027 | 15 | 187 | 0.0 | 4.8 | 0.00 | 0.23 | 0.23 | 95 | 1006.0 |
| 20260507031527 | 15 | 251 | 1.6 | 6.4 | 0.00 | 0.23 | 0.23 | 95 | 1005.8 |
| 20260507031027 | 15 | 113 | 1.6 | 6.4 | 0.00 | 0.23 | 0.23 | 95 | 1005.8 |
| 20260507030527 | 15 | 190 | 1.6 | 4.8 | 0.00 | 0.23 | 0.23 | 95 | 1005.8 |
| 20260507030029 | 15 | 269 | 0.0 | 3.2 | 0.00 | 0.23 | 0.23 | 95 | 1005.7 |
| 20260507025528 | 15 | 282 | 1.6 | 9.7 | 0.00 | 0.23 | 0.23 | 95 | 1005.6 |
| 20260507025028 | 15 | 205 | 0.0 | 9.7 | 0.00 | 0.23 | 0.23 | 95 | 1005.6 |
| 20260507024528 | 15 | 223 | 1.6 | 11.3 | 0.00 | 0.23 | 0.23 | 95 | 1005.8 |
| 20260507024028 | 15 | 209 | 1.6 | 11.3 | 0.00 | 0.23 | 0.23 | 95 | 1005.9 |
| 20260507023528 | 15 | 216 | 1.6 | 4.8 | 0.00 | 0.23 | 0.23 | 95 | 1005.9 |
| 20260507023028 | 15 | 120 | 0.0 | 4.8 | 0.00 | 0.23 | 0.23 | 95 | 1006.0 |
| 20260507022527 | 15 | 215 | 1.6 | 9.7 | 0.00 | 0.23 | 0.23 | 95 | 1005.9 |
| 20260507022027 | 15 | 204 | 1.6 | 4.8 | 0.00 | 0.23 | 0.23 | 95 | 1005.8 |
| 20260507021527 | 15 | 221 | 1.6 | 6.4 | 0.00 | 0.23 | 0.23 | 95 | 1005.9 |
| 20260507021029 | 15 | 250 | 1.6 | 11.3 | 0.00 | 0.23 | 0.23 | 96 | 1005.9 |
| 20260507020527 | 15 | 202 | 0.0 | 4.8 | 0.00 | 0.23 | 0.23 | 96 | 1005.9 |
| 20260507020027 | 15 | 220 | 0.0 | 3.2 | 0.00 | 0.23 | 0.23 | 96 | 1005.8 |
| 20260507015529 | 15 | 242 | 1.6 | 4.8 | 0.00 | 0.23 | 0.23 | 96 | 1005.8 |
| 20260507015028 | 15 | 249 | 1.6 | 4.8 | 0.00 | 0.23 | 0.23 | 96 | 1005.9 |
| 20260507014528 | 15 | 206 | 1.6 | 9.7 | 0.00 | 0.23 | 0.23 | 95 | 1005.9 |
| 20260507014028 | 15 | 210 | 1.6 | 9.7 | 0.00 | 0.23 | 0.23 | 96 | 1005.9 |
| 20260507013548 | 15 | 198 | 3.2 | 9.7 | 0.00 | 0.23 | 0.23 | 96 | 1005.9 |
| 20260507013028 | 15 | 261 | 1.6 | 6.4 | 0.00 | 0.23 | 0.23 | 96 | 1005.8 |
| 20260507012527 | 14 | 211 | 3.2 | 16.1 | 0.00 | 0.23 | 0.23 | 96 | 1006.0 |
| 20260507012028 | 14 | 210 | 3.2 | 12.9 | 0.00 | 0.23 | 0.23 | 96 | 1006.0 |
| 20260507011527 | 14 | 208 | 1.6 | 11.3 | 0.00 | 0.23 | 0.23 | 96 | 1006.0 |
| 20260507011028 | 14 | 264 | 3.2 | 11.3 | 0.00 | 0.23 | 0.23 | 96 | 1006.1 |
| 20260507010527 | 14 | 232 | 3.2 | 14.5 | 0.00 | 0.23 | 0.23 | 95 | 1006.1 |
| 20260507010027 | 14 | 193 | 3.2 | 14.5 | 0.00 | 0.23 | 0.23 | 95 | 1006.1 |
| 20260507005527 | 14 | 237 | 1.6 | 6.4 | 0.00 | 0.23 | 0.23 | 95 | 1006.2 |
| 20260507005047 | 14 | 177 | 1.6 | 11.3 | 0.00 | 0.23 | 0.23 | 95 | 1006.1 |
| 20260507004527 | 14 | 233 | 1.6 | 9.7 | 0.00 | 0.23 | 0.23 | 95 | 1006.2 |
| 20260507004027 | 14 | 214 | 3.2 | 9.7 | 0.00 | 0.23 | 0.23 | 95 | 1006.1 |
| 20260507003526 | 14 | 243 | 1.6 | 11.3 | 0.00 | 0.23 | 0.23 | 95 | 1006.1 |
| 20260507003029 | 14 | 244 | 1.6 | 11.3 | 0.00 | 0.23 | 0.23 | 95 | 1006.1 |
| 20260507002528 | 14 | 177 | 3.2 | 11.3 | 0.03 | 0.23 | 0.23 | 96 | 1006.2 |
| 20260507002028 | 14 | 190 | 3.2 | 9.7 | 0.03 | 0.23 | 0.23 | 95 | 1006.2 |
| 20260507001528 | 14 | 211 | 3.2 | 14.5 | 0.05 | 0.23 | 0.23 | 95 | 1006.1 |
| 20260507001028 | 14 | 192 | 3.2 | 14.5 | 0.05 | 0.23 | 0.23 | 95 | 1005.9 |
| 20260507000528 | 15 | 198 | 3.2 | 11.3 | 0.08 | 0.23 | 0.23 | 95 | 1005.8 |
| 20260507000028 | 15 | 210 | 3.2 | 11.3 | 0.05 | 0.20 | 0.20 | 95 | 1005.7 |
| 20260506235527 | 15 | 211 | 4.8 | 16.1 | 0.05 | 0.20 | 0.20 | 95 | 1005.8 |
| 20260506235027 | 15 | 199 | 3.2 | 11.3 | 0.05 | 0.20 | 0.20 | 95 | 1005.8 |
| 20260506234547 | 15 | 211 | 3.2 | 14.5 | 0.05 | 0.20 | 0.20 | 95 | 1005.8 |
| 20260506234027 | 15 | 210 | 1.6 | 9.7 | 0.05 | 0.20 | 0.20 | 95 | 1005.9 |
| 20260506233527 | 15 | 187 | 1.6 | 11.3 | 0.05 | 0.20 | 0.20 | 95 | 1005.8 |
| 20260506233027 | 15 | 224 | 3.2 | 12.9 | 0.05 | 0.20 | 0.20 | 95 | 1005.7 |
| 20260506232527 | 15 | 167 | 1.6 | 12.9 | 0.05 | 0.20 | 0.20 | 94 | 1005.8 |
| 20260506232026 | 15 | 238 | 1.6 | 11.3 | 0.03 | 0.18 | 0.18 | 94 | 1005.7 |
| 20260506231528 | 15 | 178 | 1.6 | 9.7 | 0.03 | 0.18 | 0.18 | 94 | 1005.7 |
| 20260506231028 | 15 | 195 | 1.6 | 9.7 | 0.00 | 0.15 | 0.15 | 93 | 1005.8 |
| 20260506230528 | 15 | 182 | 1.6 | 11.3 | 0.00 | 0.15 | 0.15 | 94 | 1005.8 |
| 20260506230028 | 15 | 214 | 3.2 | 11.3 | 0.00 | 0.15 | 0.15 | 94 | 1005.7 |
| 20260506225528 | 15 | 205 | 1.6 | 14.5 | 0.00 | 0.15 | 0.15 | 93 | 1005.8 |
| 20260506225027 | 15 | 201 | 4.8 | 22.5 | 0.03 | 0.15 | 0.15 | 94 | 1005.9 |
| 20260506224527 | 15 | 206 | 3.2 | 11.3 | 0.03 | 0.15 | 0.15 | 94 | 1005.9 |
| 20260506224027 | 15 | 219 | 3.2 | 14.5 | 0.05 | 0.15 | 0.15 | 94 | 1005.9 |
| 20260506223527 | 15 | 165 | 3.2 | 17.7 | 0.05 | 0.15 | 0.15 | 94 | 1006.0 |
| 20260506223027 | 15 | 221 | 1.6 | 17.7 | 0.05 | 0.15 | 0.15 | 94 | 1006.0 |
| 20260506222527 | 15 | 180 | 4.8 | 17.7 | 0.05 | 0.15 | 0.15 | 94 | 1006.1 |
| 20260506222029 | 15 | 187 | 4.8 | 16.1 | 0.05 | 0.15 | 0.15 | 94 | 1006.2 |
| 20260506221528 | 15 | 182 | 3.2 | 16.1 | 0.05 | 0.15 | 0.15 | 94 | 1006.3 |
| 20260506221028 | 15 | 207 | 3.2 | 14.5 | 0.05 | 0.15 | 0.15 | 93 | 1006.2 |
| 20260506220529 | 15 | 210 | 3.2 | 14.5 | 0.05 | 0.15 | 0.15 | 93 | 1006.3 |
| 20260506220028 | 15 | 215 | 3.2 | 16.1 | 0.03 | 0.13 | 0.13 | 92 | 1006.2 |
| 20260506215528 | 15 | 175 | 4.8 | 17.7 | 0.03 | 0.13 | 0.13 | 91 | 1006.3 |
| 20260506215048 | 16 | 221 | 1.6 | 9.7 | 0.03 | 0.13 | 0.13 | 90 | 1006.5 |
| 20260506214528 | 16 | 193 | 3.2 | 11.3 | 0.00 | 0.13 | 0.13 | 89 | 1006.6 |
| 20260506214028 | 16 | 200 | 4.8 | 24.1 | 0.00 | 0.10 | 0.10 | 87 | 1006.7 |
| 20260506213547 | 16 | 197 | 6.4 | 24.1 | 0.00 | 0.10 | 0.10 | 87 | 1006.6 |
| 20260506213027 | 16 | 208 | 3.2 | 17.7 | 0.00 | 0.10 | 0.10 | 88 | 1006.7 |
| 20260506212527 | 16 | 204 | 3.2 | 9.7 | 0.03 | 0.10 | 0.10 | 88 | 1006.6 |
| 20260506212027 | 16 | 166 | 1.6 | 9.7 | 0.03 | 0.10 | 0.10 | 88 | 1006.6 |
| 20260506211527 | 16 | 198 | 3.2 | 11.3 | 0.03 | 0.10 | 0.10 | 88 | 1006.7 |
| 20260506211027 | 16 | 236 | 1.6 | 6.4 | 0.03 | 0.10 | 0.10 | 88 | 1006.6 |
| 20260506210529 | 16 | 248 | 1.6 | 14.5 | 0.03 | 0.10 | 0.10 | 88 | 1006.7 |
| 20260506210030 | 16 | 158 | 1.6 | 12.9 | 0.03 | 0.10 | 0.10 | 88 | 1006.7 |
| 20260506205528 | 16 | 224 | 1.6 | 9.7 | 0.03 | 0.10 | 0.10 | 88 | 1006.8 |
| 20260506205028 | 16 | 223 | 4.8 | 16.1 | 0.03 | 0.10 | 0.10 | 87 | 1006.8 |
| 20260506204548 | 16 | 200 | 1.6 | 14.5 | 0.05 | 0.10 | 0.10 | 87 | 1006.9 |
| 20260506204028 | 16 | 164 | 3.2 | 11.3 | 0.05 | 0.10 | 0.10 | 86 | 1007.0 |
| 20260506203528 | 16 | 188 | 3.2 | 16.1 | 0.05 | 0.10 | 0.10 | 86 | 1007.0 |
| 20260506203028 | 16 | 225 | 1.6 | 11.3 | 0.05 | 0.10 | 0.10 | 85 | 1007.0 |
| 20260506202528 | 16 | 200 | 3.2 | 11.3 | 0.05 | 0.10 | 0.10 | 85 | 1007.0 |
| 20260506202028 | 16 | 202 | 3.2 | 16.1 | 0.08 | 0.10 | 0.10 | 86 | 1006.9 |
| 20260506201528 | 16 | 183 | 1.6 | 11.3 | 0.08 | 0.10 | 0.10 | 86 | 1006.9 |
| 20260506201028 | 16 | 201 | 1.6 | 6.4 | 0.10 | 0.10 | 0.10 | 85 | 1006.7 |
| 20260506200528 | 17 | 149 | 3.2 | 11.3 | 0.10 | 0.10 | 0.10 | 85 | 1006.8 |
| 20260506200028 | 17 | 129 | 1.6 | 9.7 | 0.10 | 0.10 | 0.10 | 85 | 1006.7 |
| 20260506195528 | 17 | 201 | 3.2 | 11.3 | 0.08 | 0.08 | 0.08 | 84 | 1006.8 |
| 20260506195027 | 17 | 185 | 3.2 | 17.7 | 0.08 | 0.08 | 0.08 | 83 | 1006.9 |
| 20260506194527 | 17 | 192 | 3.2 | 11.3 | 0.08 | 0.08 | 0.08 | 83 | 1006.9 |
| 20260506194047 | 17 | 185 | 1.6 | 6.4 | 0.05 | 0.05 | 0.05 | 82 | 1007.1 |
| 20260506193529 | 18 | 192 | 1.6 | 6.4 | 0.05 | 0.05 | 0.05 | 80 | 1007.0 |
| 20260506193029 | 18 | 235 | 1.6 | 11.3 | 0.05 | 0.05 | 0.05 | 77 | 1007.0 |
| 20260506192527 | 18 | 221 | 3.2 | 22.5 | 0.03 | 0.03 | 0.03 | 74 | 1007.0 |
| 20260506192028 | 18 | 215 | 3.2 | 22.5 | 0.03 | 0.03 | 0.03 | 73 | 1007.0 |
| 20260506191528 | 19 | 265 | 1.6 | 9.7 | 0.00 | 0.00 | 0.00 | 71 | 1007.0 |
| 20260506191027 | 20 | 227 | 4.8 | 12.9 | 0.00 | 0.00 | 0.00 | 67 | 1006.9 |
| 20260506190527 | 20 | 278 | 3.2 | 14.5 | 0.00 | 0.00 | 0.00 | 65 | 1006.9 |
| 20260506190027 | 20 | 257 | 3.2 | 11.3 | 0.00 | 0.00 | 0.00 | 64 | 1007.0 |
| 20260506185529 | 20 | 242 | 3.2 | 22.5 | 0.00 | 0.00 | 0.00 | 63 | 1007.0 |
| 20260506185029 | 20 | 226 | 6.4 | 22.5 | 0.00 | 0.00 | 0.00 | 62 | 1007.1 |
| 20260506184528 | 20 | 252 | 6.4 | 22.5 | 0.00 | 0.00 | 0.00 | 61 | 1007.0 |
| 20260506184029 | 21 | 149 | 3.2 | 24.1 | 0.00 | 0.00 | 0.00 | 60 | 1007.0 |
| 20260506183528 | 21 | 232 | 4.8 | 37.0 | 0.00 | 0.00 | 0.00 | 58 | 1007.0 |
| 20260506183028 | 21 | 234 | 3.2 | 11.3 | 0.00 | 0.00 | 0.00 | 56 | 1007.0 |
| 20260506182528 | 21 | 198 | 4.8 | 20.9 | 0.00 | 0.00 | 0.00 | 55 | 1007.1 |
| 20260506182028 | 21 | 215 | 3.2 | 20.9 | 0.00 | 0.00 | 0.00 | 54 | 1007.1 |
| 20260506181528 | 22 | 75 | 1.6 | 4.8 | 0.00 | 0.00 | 0.00 | 54 | 1007.1 |
| 20260506181048 | 22 | 232 | 1.6 | 6.4 | 0.00 | 0.00 | 0.00 | 53 | 1007.0 |
| 20260506180528 | 22 | 286 | 3.2 | 17.7 | 0.00 | 0.00 | 0.00 | 53 | 1007.2 |
| 20260506180027 | 22 | 211 | 4.8 | 20.9 | 0.00 | 0.00 | 0.00 | 52 | 1007.3 |
| 20260506175548 | 22 | 223 | 8.0 | 24.1 | 0.00 | 0.00 | 0.00 | 52 | 1007.3 |
| 20260506175027 | 22 | 247 | 6.4 | 24.1 | 0.00 | 0.00 | 0.00 | 52 | 1007.4 |
| 20260506174527 | 22 | 192 | 4.8 | 20.9 | 0.00 | 0.00 | 0.00 | 54 | 1007.3 |
| 20260506174049 | 22 | 193 | 6.4 | 20.9 | 0.00 | 0.00 | 0.00 | 55 | 1007.3 |
| 20260506173529 | 22 | 169 | 6.4 | 20.9 | 0.00 | 0.00 | 0.00 | 56 | 1007.5 |
| 20260506173029 | 22 | 172 | 6.4 | 29.0 | 0.00 | 0.00 | 0.00 | 56 | 1007.6 |
| 20260506172548 | 22 | 208 | 4.8 | 17.7 | 0.00 | 0.00 | 0.00 | 56 | 1007.5 |
| 20260506172028 | 22 | 195 | 8.0 | 20.9 | 0.00 | 0.00 | 0.00 | 56 | 1007.6 |
| 20260506171548 | 22 | 188 | 6.4 | 22.5 | 0.00 | 0.00 | 0.00 | 56 | 1007.5 |
| 20260506171028 | 22 | 209 | 6.4 | 22.5 | 0.00 | 0.00 | 0.00 | 57 | 1007.5 |
| 20260506170548 | 22 | 193 | 4.8 | 16.1 | 0.00 | 0.00 | 0.00 | 59 | 1007.6 |
| 20260506170028 | 21 | 160 | 8.0 | 22.5 | 0.00 | 0.00 | 0.00 | 58 | 1007.6 |
| 20260506165548 | 21 | 200 | 6.4 | 22.5 | 0.00 | 0.00 | 0.00 | 58 | 1007.8 |
| 20260506165028 | 21 | 234 | 6.4 | 20.9 | 0.00 | 0.00 | 0.00 | 57 | 1007.8 |
| 20260506164527 | 21 | 189 | 6.4 | 16.1 | 0.00 | 0.00 | 0.00 | 58 | 1007.9 |
| 20260506164027 | 21 | 280 | 4.8 | 12.9 | 0.00 | 0.00 | 0.00 | 58 | 1007.9 |
| 20260506163527 | 21 | 220 | 3.2 | 11.3 | 0.00 | 0.00 | 0.00 | 58 | 1007.9 |
| 20260506163027 | 21 | 155 | 4.8 | 17.7 | 0.00 | 0.00 | 0.00 | 58 | 1008.0 |
| 20260506162547 | 21 | 165 | 4.8 | 16.1 | 0.00 | 0.00 | 0.00 | 57 | 1008.2 |
| 20260506162027 | 22 | 231 | 4.8 | 16.1 | 0.00 | 0.00 | 0.00 | 57 | 1008.3 |
| 20260506161527 | 22 | 184 | 4.8 | 16.1 | 0.00 | 0.00 | 0.00 | 56 | 1008.4 |
| 20260506161028 | 22 | 169 | 3.2 | 12.9 | 0.00 | 0.00 | 0.00 | 57 | 1008.3 |
| 20260506160528 | 22 | 207 | 3.2 | 17.7 | 0.00 | 0.00 | 0.00 | 57 | 1008.5 |
| 20260506160028 | 22 | 288 | 4.8 | 11.3 | 0.00 | 0.00 | 0.00 | 56 | 1008.5 |
| 20260506155528 | 22 | 157 | 3.2 | 24.1 | 0.00 | 0.00 | 0.00 | 56 | 1008.7 |
| 20260506155028 | 22 | 230 | 6.4 | 24.1 | 0.00 | 0.00 | 0.00 | 55 | 1008.8 |
| 20260506154528 | 22 | 249 | 1.6 | 9.7 | 0.00 | 0.00 | 0.00 | 57 | 1008.7 |
| 20260506154048 | 22 | 230 | 3.2 | 17.7 | 0.00 | 0.00 | 0.00 | 56 | 1008.8 |
| 20260506153527 | 22 | 188 | 6.4 | 20.9 | 0.00 | 0.00 | 0.00 | 56 | 1008.9 |
| 20260506153027 | 22 | 243 | 6.4 | 27.4 | 0.00 | 0.00 | 0.00 | 55 | 1009.1 |
| 20260506152527 | 22 | 224 | 4.8 | 14.5 | 0.00 | 0.00 | 0.00 | 55 | 1009.0 |
| 20260506152029 | 22 | 211 | 6.4 | 16.1 | 0.00 | 0.00 | 0.00 | 55 | 1009.0 |
| 20260506151529 | 22 | 199 | 4.8 | 16.1 | 0.00 | 0.00 | 0.00 | 57 | 1009.1 |
| 20260506151029 | 22 | 212 | 6.4 | 24.1 | 0.00 | 0.00 | 0.00 | 57 | 1009.2 |
| 20260506150549 | 22 | 206 | 4.8 | 16.1 | 0.00 | 0.00 | 0.00 | 58 | 1009.2 |
| 20260506150049 | 21 | 238 | 4.8 | 12.9 | 0.00 | 0.00 | 0.00 | 58 | 1009.3 |
| 20260506145528 | 21 | 248 | 4.8 | 25.7 | 0.00 | 0.00 | 0.00 | 59 | 1009.3 |
| 20260506145028 | 21 | 206 | 3.2 | 16.1 | 0.00 | 0.00 | 0.00 | 60 | 1009.1 |
| 20260506144548 | 21 | 206 | 4.8 | 16.1 | 0.00 | 0.00 | 0.00 | 60 | 1009.2 |
| 20260506144028 | 21 | 230 | 4.8 | 16.1 | 0.00 | 0.00 | 0.00 | 61 | 1009.1 |
| 20260506143528 | 21 | 248 | 4.8 | 16.1 | 0.00 | 0.00 | 0.00 | 61 | 1009.2 |
| 20260506143028 | 21 | 223 | 4.8 | 16.1 | 0.00 | 0.00 | 0.00 | 62 | 1009.2 |
| 20260506142528 | 21 | 208 | 3.2 | 20.9 | 0.00 | 0.00 | 0.00 | 62 | 1009.1 |
| 20260506142028 | 20 | 196 | 4.8 | 20.9 | 0.00 | 0.00 | 0.00 | 64 | 1009.1 |
| 20260506141527 | 20 | 201 | 4.8 | 22.5 | 0.00 | 0.00 | 0.00 | 63 | 1009.2 |
| 20260506141027 | 20 | 186 | 4.8 | 17.7 | 0.00 | 0.00 | 0.00 | 65 | 1009.2 |
| 20260506140529 | 20 | 236 | 4.8 | 22.5 | 0.00 | 0.00 | 0.00 | 65 | 1009.3 |
| 20260506140029 | 20 | 208 | 4.8 | 17.7 | 0.00 | 0.00 | 0.00 | 65 | 1009.3 |
| 20260506135529 | 20 | 186 | 4.8 | 17.7 | 0.00 | 0.00 | 0.00 | 67 | 1009.3 |
| 20260506135028 | 19 | 154 | 3.2 | 12.9 | 0.00 | 0.00 | 0.00 | 68 | 1009.3 |
| 20260506134528 | 19 | 202 | 4.8 | 22.5 | 0.00 | 0.00 | 0.00 | 69 | 1009.4 |
| 20260506134028 | 18 | 217 | 4.8 | 17.7 | 0.00 | 0.00 | 0.00 | 69 | 1009.6 |
| 20260506133528 | 18 | 164 | 4.8 | 14.5 | 0.00 | 0.00 | 0.00 | 70 | 1009.8 |
| 20260506133028 | 18 | 178 | 1.6 | 9.7 | 0.00 | 0.00 | 0.00 | 72 | 1009.9 |
| 20260506132528 | 18 | 211 | 3.2 | 11.3 | 0.00 | 0.00 | 0.00 | 72 | 1009.9 |
| 20260506132027 | 18 | 190 | 1.6 | 14.5 | 0.00 | 0.00 | 0.00 | 71 | 1009.8 |
| 20260506131548 | 18 | 205 | 3.2 | 14.5 | 0.00 | 0.00 | 0.00 | 71 | 1009.8 |
| 20260506131027 | 18 | 266 | 1.6 | 14.5 | 0.00 | 0.00 | 0.00 | 73 | 1009.7 |
| 20260506130527 | 18 | 221 | 1.6 | 6.4 | 0.00 | 0.00 | 0.00 | 73 | 1009.8 |
| 20260506130027 | 18 | 198 | 3.2 | 11.3 | 0.00 | 0.00 | 0.00 | 72 | 1009.8 |
| 20260506125527 | 18 | 186 | 3.2 | 11.3 | 0.00 | 0.00 | 0.00 | 73 | 1009.8 |
| 20260506125029 | 18 | 199 | 4.8 | 16.1 | 0.00 | 0.00 | 0.00 | 73 | 1009.7 |
| 20260506124529 | 17 | 174 | 6.4 | 16.1 | 0.00 | 0.00 | 0.00 | 73 | 1009.8 |
| 20260506124029 | 17 | 169 | 4.8 | 16.1 | 0.00 | 0.00 | 0.00 | 73 | 1010.0 |
| 20260506123528 | 17 | 175 | 4.8 | 16.1 | 0.00 | 0.00 | 0.00 | 74 | 1010.1 |
| 20260506123028 | 17 | 211 | 1.6 | 4.8 | 0.00 | 0.00 | 0.00 | 77 | 1010.0 |
| 20260506122528 | 17 | 196 | 1.6 | 4.8 | 0.00 | 0.00 | 0.00 | 76 | 1010.0 |
| 20260506122028 | 17 | 214 | 3.2 | 11.3 | 0.00 | 0.00 | 0.00 | 75 | 1009.8 |
| 20260506121528 | 17 | 172 | 4.8 | 20.9 | 0.00 | 0.00 | 0.00 | 75 | 1009.9 |
| 20260506121028 | 17 | 209 | 4.8 | 16.1 | 0.00 | 0.00 | 0.00 | 75 | 1009.8 |
| 20260506120527 | 17 | 221 | 4.8 | 16.1 | 0.00 | 0.00 | 0.00 | 75 | 1009.9 |
| 20260506120028 | 16 | 174 | 4.8 | 16.1 | 0.00 | 0.00 | 0.00 | 77 | 1010.0 |
| 20260506115527 | 16 | 204 | 4.8 | 16.1 | 0.00 | 0.00 | 0.00 | 77 | 1010.2 |
| 20260506115027 | 16 | 212 | 3.2 | 16.1 | 0.00 | 0.00 | 0.00 | 78 | 1010.2 |
| 20260506114527 | 16 | 191 | 3.2 | 6.4 | 0.00 | 0.00 | 0.00 | 78 | 1010.1 |
| 20260506114027 | 16 | 218 | 3.2 | 16.1 | 0.00 | 0.00 | 0.00 | 78 | 1010.4 |
| 20260506113529 | 16 | 227 | 3.2 | 11.3 | 0.00 | 0.00 | 0.00 | 78 | 1010.4 |
| 20260506113029 | 16 | 258 | 3.2 | 20.9 | 0.00 | 0.00 | 0.00 | 78 | 1010.4 |
| 20260506112528 | 16 | 220 | 3.2 | 12.9 | 0.00 | 0.00 | 0.00 | 78 | 1010.3 |
| 20260506112028 | 16 | 231 | 3.2 | 12.9 | 0.00 | 0.00 | 0.00 | 77 | 1010.1 |
| 20260506111528 | 16 | 206 | 3.2 | 16.1 | 0.00 | 0.00 | 0.00 | 78 | 1010.2 |
| 20260506111028 | 16 | 231 | 3.2 | 16.1 | 0.00 | 0.00 | 0.00 | 77 | 1010.2 |
| 20260506110528 | 16 | 208 | 4.8 | 16.1 | 0.00 | 0.00 | 0.00 | 78 | 1010.3 |
| 20260506110028 | 16 | 204 | 3.2 | 12.9 | 0.00 | 0.00 | 0.00 | 79 | 1010.1 |
| 20260506105528 | 15 | 192 | 4.8 | 14.5 | 0.00 | 0.00 | 0.00 | 80 | 1010.1 |
| 20260506105027 | 15 | 202 | 1.6 | 11.3 | 0.00 | 0.00 | 0.00 | 81 | 1010.2 |
| 20260506104527 | 15 | 193 | 3.2 | 16.1 | 0.00 | 0.00 | 0.00 | 80 | 1010.2 |
| 20260506104027 | 15 | 215 | 3.2 | 9.7 | 0.00 | 0.00 | 0.00 | 81 | 1010.3 |
| 20260506103527 | 15 | 162 | 3.2 | 6.4 | 0.00 | 0.00 | 0.00 | 80 | 1010.3 |
| 20260506103027 | 15 | 212 | 3.2 | 6.4 | 0.00 | 0.00 | 0.00 | 80 | 1010.3 |
| 20260506102528 | 15 | 215 | 3.2 | 12.9 | 0.00 | 0.00 | 0.00 | 80 | 1010.2 |
| 20260506102027 | 15 | 200 | 3.2 | 12.9 | 0.00 | 0.00 | 0.00 | 80 | 1010.3 |